sensor_id;sensor_type;location;lat;lon;timestamp;temperature;humidity
36384;DHT22;22418;51.210;6.976;2023-07-13T00:00:13;19.60;99.90
36384;DHT22;22418;51.210;6.976;2023-07-13T00:02:46;19.60;99.90
36384;DHT22;22418;51.210;6.976;2023-07-13T00:05:17;19.60;99.90
36384;DHT22;22418;51.210;6.976;2023-07-13T00:07:48;19.50;99.90
36384;DHT22;22418;51.210;6.976;2023-07-13T00:10:19;19.50;99.90
36384;DHT22;22418;51.210;6.976;2023-07-13T00:12:49;19.50;99.90
36384;DHT22;22418;51.210;6.976;2023-07-13T00:15:25;19.40;99.90
36384;DHT22;22418;51.210;6.976;2023-07-13T00:17:55;19.40;99.90
36384;DHT22;22418;51.210;6.976;2023-07-13T00:20:26;19.30;99.90
36384;DHT22;22418;51.210;6.976;2023-07-13T00:22:57;19.40;99.90
36384;DHT22;22418;51.210;6.976;2023-07-13T00:25:28;19.30;99.90
36384;DHT22;22418;51.210;6.976;2023-07-13T00:27:58;19.30;99.90
36384;DHT22;22418;51.210;6.976;2023-07-13T00:30:29;19.30;99.90
36384;DHT22;22418;51.210;6.976;2023-07-13T00:32:59;19.30;99.90
36384;DHT22;22418;51.210;6.976;2023-07-13T00:35:31;19.20;99.90
36384;DHT22;22418;51.210;6.976;2023-07-13T00:38:02;19.10;99.90
36384;DHT22;22418;51.210;6.976;2023-07-13T00:40:33;19.00;99.90
36384;DHT22;22418;51.210;6.976;2023-07-13T00:43:18;18.90;99.90
36384;DHT22;22418;51.210;6.976;2023-07-13T00:48:29;18.80;99.90
36384;DHT22;22418;51.210;6.976;2023-07-13T00:51:01;18.90;99.90
36384;DHT22;22418;51.210;6.976;2023-07-13T00:53:33;18.90;99.90
36384;DHT22;22418;51.210;6.976;2023-07-13T00:56:04;18.80;99.90
36384;DHT22;22418;51.210;6.976;2023-07-13T00:58:35;18.90;99.90
36384;DHT22;22418;51.210;6.976;2023-07-13T01:01:06;18.80;99.90
36384;DHT22;22418;51.210;6.976;2023-07-13T01:03:36;18.80;99.90
36384;DHT22;22418;51.210;6.976;2023-07-13T01:06:08;18.80;99.90
36384;DHT22;22418;51.210;6.976;2023-07-13T01:08:39;18.80;99.90
36384;DHT22;22418;51.210;6.976;2023-07-13T01:11:10;18.80;99.90
36384;DHT22;22418;51.210;6.976;2023-07-13T01:13:41;18.80;99.90
36384;DHT22;22418;51.210;6.976;2023-07-13T01:16:25;18.80;99.90
36384;DHT22;22418;51.210;6.976;2023-07-13T01:18:57;18.80;99.90
36384;DHT22;22418;51.210;6.976;2023-07-13T01:21:29;18.70;99.90
36384;DHT22;22418;51.210;6.976;2023-07-13T01:24:00;18.80;99.90
36384;DHT22;22418;51.210;6.976;2023-07-13T01:26:32;18.80;99.90
36384;DHT22;22418;51.210;6.976;2023-07-13T01:29:03;18.80;99.90
36384;DHT22;22418;51.210;6.976;2023-07-13T01:31:33;18.70;99.90
36384;DHT22;22418;51.210;6.976;2023-07-13T01:34:05;18.70;99.90
36384;DHT22;22418;51.210;6.976;2023-07-13T01:36:35;18.70;99.90
36384;DHT22;22418;51.210;6.976;2023-07-13T01:39:06;18.60;99.90
36384;DHT22;22418;51.210;6.976;2023-07-13T01:41:36;18.60;99.90
36384;DHT22;22418;51.210;6.976;2023-07-13T01:44:07;18.60;99.90
36384;DHT22;22418;51.210;6.976;2023-07-13T01:46:38;18.70;99.90
36384;DHT22;22418;51.210;6.976;2023-07-13T01:49:08;18.60;99.90
36384;DHT22;22418;51.210;6.976;2023-07-13T01:51:39;18.60;99.90
36384;DHT22;22418;51.210;6.976;2023-07-13T01:54:09;18.50;99.90
36384;DHT22;22418;51.210;6.976;2023-07-13T01:56:40;18.50;99.90
36384;DHT22;22418;51.210;6.976;2023-07-13T01:59:12;18.50;99.90
36384;DHT22;22418;51.210;6.976;2023-07-13T02:01:42;18.50;99.90
36384;DHT22;22418;51.210;6.976;2023-07-13T02:04:13;18.40;99.90
36384;DHT22;22418;51.210;6.976;2023-07-13T02:06:43;18.40;99.90
36384;DHT22;22418;51.210;6.976;2023-07-13T02:09:14;18.30;99.90
36384;DHT22;22418;51.210;6.976;2023-07-13T02:11:44;18.30;99.90
36384;DHT22;22418;51.210;6.976;2023-07-13T02:14:15;18.40;99.90
36384;DHT22;22418;51.210;6.976;2023-07-13T02:16:45;18.30;99.90
36384;DHT22;22418;51.210;6.976;2023-07-13T02:19:16;18.30;99.90
36384;DHT22;22418;51.210;6.976;2023-07-13T02:21:47;18.30;99.90
36384;DHT22;22418;51.210;6.976;2023-07-13T02:24:17;18.30;99.90
36384;DHT22;22418;51.210;6.976;2023-07-13T02:26:49;18.20;99.90
36384;DHT22;22418;51.210;6.976;2023-07-13T02:29:20;18.20;99.90
36384;DHT22;22418;51.210;6.976;2023-07-13T02:31:51;18.20;99.90
36384;DHT22;22418;51.210;6.976;2023-07-13T02:34:21;18.20;99.90
36384;DHT22;22418;51.210;6.976;2023-07-13T02:36:52;18.20;99.90
36384;DHT22;22418;51.210;6.976;2023-07-13T02:39:22;18.20;99.90
36384;DHT22;22418;51.210;6.976;2023-07-13T02:41:53;18.20;99.90
36384;DHT22;22418;51.210;6.976;2023-07-13T02:44:24;18.10;99.90
36384;DHT22;22418;51.210;6.976;2023-07-13T02:46:54;18.20;99.90
36384;DHT22;22418;51.210;6.976;2023-07-13T02:49:25;18.10;99.90
36384;DHT22;22418;51.210;6.976;2023-07-13T02:51:55;18.10;99.90
36384;DHT22;22418;51.210;6.976;2023-07-13T02:54:26;18.10;99.90
36384;DHT22;22418;51.210;6.976;2023-07-13T02:56:56;18.20;99.90
36384;DHT22;22418;51.210;6.976;2023-07-13T02:59:27;18.30;99.90
36384;DHT22;22418;51.210;6.976;2023-07-13T03:01:57;18.30;99.90
36384;DHT22;22418;51.210;6.976;2023-07-13T03:04:28;18.20;99.90
36384;DHT22;22418;51.210;6.976;2023-07-13T03:06:59;18.20;99.90
36384;DHT22;22418;51.210;6.976;2023-07-13T03:09:31;18.10;99.90
36384;DHT22;22418;51.210;6.976;2023-07-13T03:12:01;18.00;99.90
36384;DHT22;22418;51.210;6.976;2023-07-13T03:14:32;18.00;99.90
36384;DHT22;22418;51.210;6.976;2023-07-13T03:17:03;18.00;99.90
36384;DHT22;22418;51.210;6.976;2023-07-13T03:19:33;17.90;99.90
36384;DHT22;22418;51.210;6.976;2023-07-13T03:22:04;18.00;99.90
36384;DHT22;22418;51.210;6.976;2023-07-13T03:24:35;17.90;99.90
36384;DHT22;22418;51.210;6.976;2023-07-13T03:27:08;18.00;99.90
36384;DHT22;22418;51.210;6.976;2023-07-13T03:29:38;17.90;99.90
36384;DHT22;22418;51.210;6.976;2023-07-13T03:32:09;17.90;99.90
36384;DHT22;22418;51.210;6.976;2023-07-13T03:34:40;18.00;99.90
36384;DHT22;22418;51.210;6.976;2023-07-13T03:37:10;18.00;99.90
36384;DHT22;22418;51.210;6.976;2023-07-13T03:39:41;18.00;99.90
36384;DHT22;22418;51.210;6.976;2023-07-13T03:42:12;18.00;99.90
36384;DHT22;22418;51.210;6.976;2023-07-13T03:44:43;18.00;99.90
36384;DHT22;22418;51.210;6.976;2023-07-13T03:47:22;18.00;99.90
36384;DHT22;22418;51.210;6.976;2023-07-13T03:49:53;18.10;99.90
36384;DHT22;22418;51.210;6.976;2023-07-13T03:52:23;18.10;99.90
36384;DHT22;22418;51.210;6.976;2023-07-13T03:54:54;18.10;99.90
36384;DHT22;22418;51.210;6.976;2023-07-13T03:57:25;18.10;99.90
36384;DHT22;22418;51.210;6.976;2023-07-13T03:59:55;18.10;99.90
36384;DHT22;22418;51.210;6.976;2023-07-13T04:02:26;18.10;99.90
36384;DHT22;22418;51.210;6.976;2023-07-13T04:04:56;18.20;99.90
36384;DHT22;22418;51.210;6.976;2023-07-13T04:07:27;18.20;99.90
36384;DHT22;22418;51.210;6.976;2023-07-13T04:09:57;18.20;99.90
36384;DHT22;22418;51.210;6.976;2023-07-13T04:12:28;18.30;99.90
36384;DHT22;22418;51.210;6.976;2023-07-13T04:14:58;18.30;99.90
36384;DHT22;22418;51.210;6.976;2023-07-13T04:17:29;18.30;99.90
36384;DHT22;22418;51.210;6.976;2023-07-13T04:20:02;18.40;99.90
36384;DHT22;22418;51.210;6.976;2023-07-13T04:22:33;18.50;99.90
36384;DHT22;22418;51.210;6.976;2023-07-13T04:25:04;18.50;99.90
36384;DHT22;22418;51.210;6.976;2023-07-13T04:27:36;18.60;99.90
36384;DHT22;22418;51.210;6.976;2023-07-13T04:30:07;18.60;99.90
36384;DHT22;22418;51.210;6.976;2023-07-13T04:32:38;18.70;99.90
36384;DHT22;22418;51.210;6.976;2023-07-13T04:35:08;18.90;99.90
36384;DHT22;22418;51.210;6.976;2023-07-13T04:37:39;19.10;99.90
36384;DHT22;22418;51.210;6.976;2023-07-13T04:40:10;19.20;99.90
36384;DHT22;22418;51.210;6.976;2023-07-13T04:42:42;19.60;99.90
36384;DHT22;22418;51.210;6.976;2023-07-13T04:45:14;19.90;99.90
36384;DHT22;22418;51.210;6.976;2023-07-13T04:47:45;20.00;99.90
36384;DHT22;22418;51.210;6.976;2023-07-13T04:50:16;20.00;99.90
36384;DHT22;22418;51.210;6.976;2023-07-13T04:52:51;19.90;99.90
36384;DHT22;22418;51.210;6.976;2023-07-13T04:55:21;19.70;99.90
36384;DHT22;22418;51.210;6.976;2023-07-13T04:57:52;19.60;99.90
36384;DHT22;22418;51.210;6.976;2023-07-13T05:00:22;19.80;99.90
36384;DHT22;22418;51.210;6.976;2023-07-13T05:02:57;20.10;99.90
36384;DHT22;22418;51.210;6.976;2023-07-13T05:05:28;20.00;99.90
36384;DHT22;22418;51.210;6.976;2023-07-13T05:07:58;19.90;99.90
36384;DHT22;22418;51.210;6.976;2023-07-13T05:10:29;20.00;99.90
36384;DHT22;22418;51.210;6.976;2023-07-13T05:12:59;20.20;99.90
36384;DHT22;22418;51.210;6.976;2023-07-13T05:15:30;20.20;99.90
36384;DHT22;22418;51.210;6.976;2023-07-13T05:18:00;20.30;99.90
36384;DHT22;22418;51.210;6.976;2023-07-13T05:20:31;20.20;99.90
36384;DHT22;22418;51.210;6.976;2023-07-13T05:23:01;20.30;99.90
36384;DHT22;22418;51.210;6.976;2023-07-13T05:25:32;20.30;99.90
36384;DHT22;22418;51.210;6.976;2023-07-13T05:28:03;20.30;99.90
36384;DHT22;22418;51.210;6.976;2023-07-13T05:30:33;20.30;99.90
36384;DHT22;22418;51.210;6.976;2023-07-13T05:33:04;20.20;99.90
36384;DHT22;22418;51.210;6.976;2023-07-13T05:35:34;20.40;99.90
36384;DHT22;22418;51.210;6.976;2023-07-13T05:38:05;20.80;99.90
36384;DHT22;22418;51.210;6.976;2023-07-13T05:40:35;21.30;99.90
36384;DHT22;22418;51.210;6.976;2023-07-13T05:43:06;22.40;99.90
36384;DHT22;22418;51.210;6.976;2023-07-13T05:45:36;23.70;99.30
36384;DHT22;22418;51.210;6.976;2023-07-13T05:48:07;24.20;98.30
36384;DHT22;22418;51.210;6.976;2023-07-13T05:50:38;24.30;97.80
36384;DHT22;22418;51.210;6.976;2023-07-13T05:53:08;24.00;98.00
36384;DHT22;22418;51.210;6.976;2023-07-13T05:55:46;24.10;97.60
36384;DHT22;22418;51.210;6.976;2023-07-13T05:58:23;24.30;97.70
36384;DHT22;22418;51.210;6.976;2023-07-13T06:01:05;24.70;97.70
36384;DHT22;22418;51.210;6.976;2023-07-13T06:03:36;24.70;97.20
36384;DHT22;22418;51.210;6.976;2023-07-13T06:06:09;24.80;97.30
36384;DHT22;22418;51.210;6.976;2023-07-13T06:08:40;24.90;97.10
36384;DHT22;22418;51.210;6.976;2023-07-13T06:11:19;25.60;96.20
36384;DHT22;22418;51.210;6.976;2023-07-13T06:13:51;25.60;96.00
36384;DHT22;22418;51.210;6.976;2023-07-13T06:16:22;25.70;95.80
36384;DHT22;22418;51.210;6.976;2023-07-13T06:18:53;25.70;96.00
36384;DHT22;22418;51.210;6.976;2023-07-13T06:21:23;26.20;95.70
36384;DHT22;22418;51.210;6.976;2023-07-13T06:23:54;26.70;94.90
36384;DHT22;22418;51.210;6.976;2023-07-13T06:26:25;27.50;93.90
36384;DHT22;22418;51.210;6.976;2023-07-13T06:28:55;27.60;93.60
36384;DHT22;22418;51.210;6.976;2023-07-13T06:31:26;27.50;93.70
36384;DHT22;22418;51.210;6.976;2023-07-13T06:33:56;27.70;93.30
36384;DHT22;22418;51.210;6.976;2023-07-13T06:36:27;27.50;93.40
36384;DHT22;22418;51.210;6.976;2023-07-13T06:38:58;27.30;93.40
36384;DHT22;22418;51.210;6.976;2023-07-13T06:41:29;27.10;93.60
36384;DHT22;22418;51.210;6.976;2023-07-13T06:44:00;27.30;93.10
36384;DHT22;22418;51.210;6.976;2023-07-13T06:46:31;26.90;93.70
36384;DHT22;22418;51.210;6.976;2023-07-13T06:49:02;26.30;94.10
36384;DHT22;22418;51.210;6.976;2023-07-13T06:51:32;25.60;95.10
36384;DHT22;22418;51.210;6.976;2023-07-13T06:54:03;25.40;95.30
36384;DHT22;22418;51.210;6.976;2023-07-13T06:56:34;25.00;96.10
36384;DHT22;22418;51.210;6.976;2023-07-13T06:59:05;25.40;96.10
36384;DHT22;22418;51.210;6.976;2023-07-13T07:01:35;27.20;94.50
36384;DHT22;22418;51.210;6.976;2023-07-13T07:04:05;28.70;92.60
36384;DHT22;22418;51.210;6.976;2023-07-13T07:06:36;30.30;91.10
36384;DHT22;22418;51.210;6.976;2023-07-13T07:09:06;31.30;89.20
36384;DHT22;22418;51.210;6.976;2023-07-13T07:11:37;32.50;84.80
36384;DHT22;22418;51.210;6.976;2023-07-13T07:14:08;32.50;83.10
36384;DHT22;22418;51.210;6.976;2023-07-13T07:16:39;31.90;83.60
36384;DHT22;22418;51.210;6.976;2023-07-13T07:19:09;31.70;83.70
36384;DHT22;22418;51.210;6.976;2023-07-13T07:21:40;31.10;84.00
36384;DHT22;22418;51.210;6.976;2023-07-13T07:24:10;30.10;85.30
36384;DHT22;22418;51.210;6.976;2023-07-13T07:26:41;29.20;87.00
36384;DHT22;22418;51.210;6.976;2023-07-13T07:29:12;28.20;89.00
36384;DHT22;22418;51.210;6.976;2023-07-13T07:31:42;27.50;90.30
36384;DHT22;22418;51.210;6.976;2023-07-13T07:34:13;26.70;91.10
36384;DHT22;22418;51.210;6.976;2023-07-13T07:36:44;26.20;91.90
36384;DHT22;22418;51.210;6.976;2023-07-13T07:39:14;25.60;92.80
36384;DHT22;22418;51.210;6.976;2023-07-13T07:41:45;25.30;93.20
36384;DHT22;22418;51.210;6.976;2023-07-13T07:44:15;25.10;93.50
36384;DHT22;22418;51.210;6.976;2023-07-13T07:46:46;24.80;94.10
36384;DHT22;22418;51.210;6.976;2023-07-13T07:49:16;24.70;94.60
36384;DHT22;22418;51.210;6.976;2023-07-13T07:51:47;24.50;95.00
36384;DHT22;22418;51.210;6.976;2023-07-13T07:54:18;24.30;95.10
36384;DHT22;22418;51.210;6.976;2023-07-13T07:56:48;24.00;95.70
36384;DHT22;22418;51.210;6.976;2023-07-13T07:59:19;23.90;96.20
36384;DHT22;22418;51.210;6.976;2023-07-13T08:01:50;24.20;95.90
36384;DHT22;22418;51.210;6.976;2023-07-13T08:04:20;24.20;96.00
36384;DHT22;22418;51.210;6.976;2023-07-13T08:06:51;24.20;96.10
36384;DHT22;22418;51.210;6.976;2023-07-13T08:09:22;24.50;95.50
36384;DHT22;22418;51.210;6.976;2023-07-13T08:11:52;24.50;95.60
36384;DHT22;22418;51.210;6.976;2023-07-13T08:14:24;24.70;95.50
36384;DHT22;22418;51.210;6.976;2023-07-13T08:16:55;24.70;95.20
36384;DHT22;22418;51.210;6.976;2023-07-13T08:19:26;24.70;95.10
36384;DHT22;22418;51.210;6.976;2023-07-13T08:21:56;24.50;95.80
36384;DHT22;22418;51.210;6.976;2023-07-13T08:24:27;24.50;96.20
36384;DHT22;22418;51.210;6.976;2023-07-13T08:26:57;24.60;96.00
36384;DHT22;22418;51.210;6.976;2023-07-13T08:29:28;24.70;95.50
36384;DHT22;22418;51.210;6.976;2023-07-13T08:31:58;24.70;95.60
36384;DHT22;22418;51.210;6.976;2023-07-13T08:34:29;24.70;95.80
36384;DHT22;22418;51.210;6.976;2023-07-13T08:36:59;24.50;96.30
36384;DHT22;22418;51.210;6.976;2023-07-13T08:39:31;24.40;96.50
36384;DHT22;22418;51.210;6.976;2023-07-13T08:42:07;24.30;96.80
36384;DHT22;22418;51.210;6.976;2023-07-13T08:45:00;24.40;96.80
36384;DHT22;22418;51.210;6.976;2023-07-13T08:47:35;24.70;96.70
36384;DHT22;22418;51.210;6.976;2023-07-13T08:50:12;25.20;95.70
36384;DHT22;22418;51.210;6.976;2023-07-13T08:52:44;25.40;95.40
36384;DHT22;22418;51.210;6.976;2023-07-13T08:55:16;25.70;95.10
36384;DHT22;22418;51.210;6.976;2023-07-13T08:57:53;25.90;95.10
36384;DHT22;22418;51.210;6.976;2023-07-13T09:00:33;25.80;95.30
36384;DHT22;22418;51.210;6.976;2023-07-13T09:03:06;26.10;94.80
36384;DHT22;22418;51.210;6.976;2023-07-13T09:05:42;26.00;94.90
36384;DHT22;22418;51.210;6.976;2023-07-13T09:08:51;25.80;95.10
36384;DHT22;22418;51.210;6.976;2023-07-13T09:14:31;25.60;95.10
36384;DHT22;22418;51.210;6.976;2023-07-13T09:17:12;25.60;95.10
36384;DHT22;22418;51.210;6.976;2023-07-13T09:19:48;25.50;95.10
36384;DHT22;22418;51.210;6.976;2023-07-13T09:22:24;25.70;95.50
36384;DHT22;22418;51.210;6.976;2023-07-13T09:27:53;26.40;94.70
36384;DHT22;22418;51.210;6.976;2023-07-13T09:30:46;26.60;94.20
36384;DHT22;22418;51.210;6.976;2023-07-13T09:33:18;26.80;93.70
36384;DHT22;22418;51.210;6.976;2023-07-13T09:35:49;26.60;93.90
36384;DHT22;22418;51.210;6.976;2023-07-13T09:38:22;26.60;93.80
36384;DHT22;22418;51.210;6.976;2023-07-13T09:41:15;26.70;93.80
36384;DHT22;22418;51.210;6.976;2023-07-13T09:44:16;26.90;94.00
36384;DHT22;22418;51.210;6.976;2023-07-13T09:46:54;27.10;93.40
36384;DHT22;22418;51.210;6.976;2023-07-13T09:49:27;27.00;93.40
36384;DHT22;22418;51.210;6.976;2023-07-13T09:52:00;27.10;93.60
36384;DHT22;22418;51.210;6.976;2023-07-13T09:54:36;27.00;93.50
36384;DHT22;22418;51.210;6.976;2023-07-13T09:57:18;26.90;93.70
36384;DHT22;22418;51.210;6.976;2023-07-13T09:59:51;26.80;93.40
36384;DHT22;22418;51.210;6.976;2023-07-13T10:04:57;26.70;93.50
36384;DHT22;22418;51.210;6.976;2023-07-13T10:07:30;26.50;93.60
36384;DHT22;22418;51.210;6.976;2023-07-13T10:10:01;26.50;93.70
36384;DHT22;22418;51.210;6.976;2023-07-13T10:12:37;26.60;93.70
36384;DHT22;22418;51.210;6.976;2023-07-13T10:15:16;26.60;93.50
36384;DHT22;22418;51.210;6.976;2023-07-13T10:17:47;26.70;93.00
36384;DHT22;22418;51.210;6.976;2023-07-13T10:20:20;26.70;93.20
36384;DHT22;22418;51.210;6.976;2023-07-13T10:23:04;26.50;92.90
36384;DHT22;22418;51.210;6.976;2023-07-13T10:25:38;26.40;93.50
36384;DHT22;22418;51.210;6.976;2023-07-13T10:30:48;26.20;93.70
36384;DHT22;22418;51.210;6.976;2023-07-13T10:33:21;26.00;93.80
36384;DHT22;22418;51.210;6.976;2023-07-13T10:36:02;25.60;94.10
36384;DHT22;22418;51.210;6.976;2023-07-13T10:38:34;25.50;94.30
36384;DHT22;22418;51.210;6.976;2023-07-13T10:41:10;25.50;94.50
36384;DHT22;22418;51.210;6.976;2023-07-13T10:43:44;25.60;94.20
36384;DHT22;22418;51.210;6.976;2023-07-13T10:46:19;25.70;94.20
36384;DHT22;22418;51.210;6.976;2023-07-13T10:48:55;25.90;94.30
36384;DHT22;22418;51.210;6.976;2023-07-13T10:51:27;25.90;93.50
36384;DHT22;22418;51.210;6.976;2023-07-13T10:54:17;25.90;93.50
36384;DHT22;22418;51.210;6.976;2023-07-13T10:56:53;25.70;93.90
36384;DHT22;22418;51.210;6.976;2023-07-13T10:59:37;25.30;94.50
36384;DHT22;22418;51.210;6.976;2023-07-13T11:02:26;25.10;94.70
36384;DHT22;22418;51.210;6.976;2023-07-13T11:04:57;24.90;95.00
36384;DHT22;22418;51.210;6.976;2023-07-13T11:07:30;25.00;95.00
36384;DHT22;22418;51.210;6.976;2023-07-13T11:10:05;25.00;95.00
36384;DHT22;22418;51.210;6.976;2023-07-13T11:12:59;25.00;95.20
36384;DHT22;22418;51.210;6.976;2023-07-13T11:15:31;24.90;95.10
36384;DHT22;22418;51.210;6.976;2023-07-13T11:18:04;24.90;94.90
36384;DHT22;22418;51.210;6.976;2023-07-13T11:20:39;25.00;94.90
36384;DHT22;22418;51.210;6.976;2023-07-13T11:25:44;24.90;95.30
36384;DHT22;22418;51.210;6.976;2023-07-13T11:28:23;24.90;95.20
36384;DHT22;22418;51.210;6.976;2023-07-13T11:36:18;24.90;95.20
36384;DHT22;22418;51.210;6.976;2023-07-13T11:38:59;24.80;95.20
36384;DHT22;22418;51.210;6.976;2023-07-13T11:41:35;24.80;95.40
36384;DHT22;22418;51.210;6.976;2023-07-13T11:44:18;24.80;95.10
36384;DHT22;22418;51.210;6.976;2023-07-13T11:46:54;24.70;95.10
36384;DHT22;22418;51.210;6.976;2023-07-13T11:49:29;24.60;95.30
36384;DHT22;22418;51.210;6.976;2023-07-13T11:52:00;24.60;95.40
36384;DHT22;22418;51.210;6.976;2023-07-13T11:54:41;24.60;95.10
36384;DHT22;22418;51.210;6.976;2023-07-13T11:59:54;24.40;95.50
36384;DHT22;22418;51.210;6.976;2023-07-13T12:02:33;24.20;95.70
36384;DHT22;22418;51.210;6.976;2023-07-13T12:05:05;24.20;96.00
36384;DHT22;22418;51.210;6.976;2023-07-13T12:07:36;24.20;96.20
36384;DHT22;22418;51.210;6.976;2023-07-13T12:12:47;24.10;95.70
36384;DHT22;22418;51.210;6.976;2023-07-13T12:15:18;24.20;95.30
36384;DHT22;22418;51.210;6.976;2023-07-13T12:17:49;24.10;95.10
36384;DHT22;22418;51.210;6.976;2023-07-13T12:20:27;23.90;95.50
36384;DHT22;22418;51.210;6.976;2023-07-13T12:23:00;23.90;95.80
36384;DHT22;22418;51.210;6.976;2023-07-13T12:25:33;23.90;95.90
36384;DHT22;22418;51.210;6.976;2023-07-13T12:28:21;24.00;95.50
36384;DHT22;22418;51.210;6.976;2023-07-13T12:30:58;24.10;95.00
36384;DHT22;22418;51.210;6.976;2023-07-13T12:33:33;24.10;94.40
36384;DHT22;22418;51.210;6.976;2023-07-13T12:36:06;24.20;94.50
36384;DHT22;22418;51.210;6.976;2023-07-13T12:38:36;24.20;94.70
36384;DHT22;22418;51.210;6.976;2023-07-13T12:41:08;24.20;94.60
36384;DHT22;22418;51.210;6.976;2023-07-13T12:43:39;24.10;94.50
36384;DHT22;22418;51.210;6.976;2023-07-13T12:46:17;24.10;94.50
36384;DHT22;22418;51.210;6.976;2023-07-13T12:48:53;24.10;94.90
36384;DHT22;22418;51.210;6.976;2023-07-13T12:51:26;24.30;93.70
36384;DHT22;22418;51.210;6.976;2023-07-13T12:54:06;24.40;93.90
36384;DHT22;22418;51.210;6.976;2023-07-13T12:56:41;24.40;93.70
36384;DHT22;22418;51.210;6.976;2023-07-13T12:59:17;24.40;94.00
36384;DHT22;22418;51.210;6.976;2023-07-13T13:01:49;24.40;94.20
36384;DHT22;22418;51.210;6.976;2023-07-13T13:04:20;24.40;93.90
36384;DHT22;22418;51.210;6.976;2023-07-13T13:07:00;24.50;92.80
36384;DHT22;22418;51.210;6.976;2023-07-13T13:09:31;24.60;92.50
36384;DHT22;22418;51.210;6.976;2023-07-13T13:12:02;24.60;92.90
36384;DHT22;22418;51.210;6.976;2023-07-13T13:14:33;24.60;93.10
36384;DHT22;22418;51.210;6.976;2023-07-13T13:17:21;24.50;93.10
36384;DHT22;22418;51.210;6.976;2023-07-13T13:19:53;24.60;92.70
36384;DHT22;22418;51.210;6.976;2023-07-13T13:22:24;24.60;92.70
36384;DHT22;22418;51.210;6.976;2023-07-13T13:24:55;24.80;92.30
36384;DHT22;22418;51.210;6.976;2023-07-13T13:27:25;24.70;92.80
36384;DHT22;22418;51.210;6.976;2023-07-13T13:29:57;24.60;92.80
36384;DHT22;22418;51.210;6.976;2023-07-13T13:32:28;24.50;93.10
36384;DHT22;22418;51.210;6.976;2023-07-13T13:34:58;24.60;93.30
36384;DHT22;22418;51.210;6.976;2023-07-13T13:37:29;24.70;93.00
36384;DHT22;22418;51.210;6.976;2023-07-13T13:39:59;24.80;92.20
36384;DHT22;22418;51.210;6.976;2023-07-13T13:42:30;24.80;91.80
36384;DHT22;22418;51.210;6.976;2023-07-13T13:45:01;24.80;91.70
36384;DHT22;22418;51.210;6.976;2023-07-13T13:47:33;24.70;91.70
36384;DHT22;22418;51.210;6.976;2023-07-13T13:50:15;24.60;91.50
36384;DHT22;22418;51.210;6.976;2023-07-13T13:52:46;24.60;92.00
36384;DHT22;22418;51.210;6.976;2023-07-13T13:55:18;24.60;92.40
36384;DHT22;22418;51.210;6.976;2023-07-13T13:57:50;24.60;92.70
36384;DHT22;22418;51.210;6.976;2023-07-13T14:00:21;24.70;92.70
36384;DHT22;22418;51.210;6.976;2023-07-13T14:02:51;24.50;92.50
36384;DHT22;22418;51.210;6.976;2023-07-13T14:05:24;24.50;92.50
36384;DHT22;22418;51.210;6.976;2023-07-13T14:07:56;24.50;92.70
36384;DHT22;22418;51.210;6.976;2023-07-13T14:10:27;24.50;92.80
36384;DHT22;22418;51.210;6.976;2023-07-13T14:12:58;24.50;92.80
36384;DHT22;22418;51.210;6.976;2023-07-13T14:15:29;24.60;92.70
36384;DHT22;22418;51.210;6.976;2023-07-13T14:18:03;24.60;92.40
36384;DHT22;22418;51.210;6.976;2023-07-13T14:20:34;24.60;92.40
36384;DHT22;22418;51.210;6.976;2023-07-13T14:23:05;24.60;92.60
36384;DHT22;22418;51.210;6.976;2023-07-13T14:25:35;24.60;92.80
36384;DHT22;22418;51.210;6.976;2023-07-13T14:28:26;24.70;92.70
36384;DHT22;22418;51.210;6.976;2023-07-13T14:30:57;24.70;92.80
36384;DHT22;22418;51.210;6.976;2023-07-13T14:33:27;24.70;92.70
36384;DHT22;22418;51.210;6.976;2023-07-13T14:35:58;24.70;92.80
36384;DHT22;22418;51.210;6.976;2023-07-13T14:38:29;24.70;92.60
36384;DHT22;22418;51.210;6.976;2023-07-13T14:40:59;24.70;92.40
36384;DHT22;22418;51.210;6.976;2023-07-13T14:43:30;24.60;92.40
36384;DHT22;22418;51.210;6.976;2023-07-13T14:46:00;24.60;92.40
36384;DHT22;22418;51.210;6.976;2023-07-13T14:48:31;24.40;92.70
36384;DHT22;22418;51.210;6.976;2023-07-13T14:51:02;24.40;92.90
36384;DHT22;22418;51.210;6.976;2023-07-13T14:53:32;24.20;93.00
36384;DHT22;22418;51.210;6.976;2023-07-13T14:56:11;24.20;93.10
36384;DHT22;22418;51.210;6.976;2023-07-13T14:58:42;24.00;93.40
36384;DHT22;22418;51.210;6.976;2023-07-13T15:01:14;23.90;93.80
36384;DHT22;22418;51.210;6.976;2023-07-13T15:03:48;23.80;94.10
36384;DHT22;22418;51.210;6.976;2023-07-13T15:06:20;23.60;94.50
36384;DHT22;22418;51.210;6.976;2023-07-13T15:08:51;23.60;94.70
36384;DHT22;22418;51.210;6.976;2023-07-13T15:11:21;23.50;94.60
36384;DHT22;22418;51.210;6.976;2023-07-13T15:13:52;23.50;94.50
36384;DHT22;22418;51.210;6.976;2023-07-13T15:16:25;23.50;94.60
36384;DHT22;22418;51.210;6.976;2023-07-13T15:18:56;23.30;95.50
36384;DHT22;22418;51.210;6.976;2023-07-13T15:21:26;23.10;98.00
36384;DHT22;22418;51.210;6.976;2023-07-13T15:24:01;22.80;99.90
36384;DHT22;22418;51.210;6.976;2023-07-13T15:26:32;22.70;99.90
36384;DHT22;22418;51.210;6.976;2023-07-13T15:29:03;22.50;99.90
36384;DHT22;22418;51.210;6.976;2023-07-13T15:31:35;22.40;99.90
36384;DHT22;22418;51.210;6.976;2023-07-13T15:34:20;22.30;99.90
36384;DHT22;22418;51.210;6.976;2023-07-13T15:36:52;22.20;99.90
36384;DHT22;22418;51.210;6.976;2023-07-13T15:39:22;22.10;99.90
36384;DHT22;22418;51.210;6.976;2023-07-13T15:41:53;22.00;99.90
36384;DHT22;22418;51.210;6.976;2023-07-13T15:44:31;21.90;99.90
36384;DHT22;22418;51.210;6.976;2023-07-13T15:47:02;21.80;99.90
36384;DHT22;22418;51.210;6.976;2023-07-13T15:49:33;21.80;99.90
36384;DHT22;22418;51.210;6.976;2023-07-13T15:52:04;21.70;99.90
36384;DHT22;22418;51.210;6.976;2023-07-13T15:54:35;21.60;99.90
36384;DHT22;22418;51.210;6.976;2023-07-13T15:57:09;21.60;99.90
36384;DHT22;22418;51.210;6.976;2023-07-13T15:59:42;21.60;99.90
36384;DHT22;22418;51.210;6.976;2023-07-13T16:02:17;21.50;99.90
36384;DHT22;22418;51.210;6.976;2023-07-13T16:04:48;21.50;99.90
36384;DHT22;22418;51.210;6.976;2023-07-13T16:07:18;21.40;99.90
36384;DHT22;22418;51.210;6.976;2023-07-13T16:09:49;21.40;99.90
36384;DHT22;22418;51.210;6.976;2023-07-13T16:12:20;21.30;99.90
36384;DHT22;22418;51.210;6.976;2023-07-13T16:14:52;21.30;99.90
36384;DHT22;22418;51.210;6.976;2023-07-13T16:17:23;21.20;99.90
36384;DHT22;22418;51.210;6.976;2023-07-13T16:19:54;21.20;99.90
36384;DHT22;22418;51.210;6.976;2023-07-13T16:22:26;21.20;99.90
36384;DHT22;22418;51.210;6.976;2023-07-13T16:24:57;21.20;99.90
36384;DHT22;22418;51.210;6.976;2023-07-13T16:27:29;21.20;99.90
36384;DHT22;22418;51.210;6.976;2023-07-13T16:30:00;21.30;99.90